createdAt,value
2017-07-21T20:03:59.999Z,100385.50
2017-07-21T20:06:26.664Z,100384.27
2017-07-21T20:11:32.026Z,100367.36
2017-07-21T20:13:58.686Z,100364.74
2017-07-21T20:16:25.362Z,100362.34
2017-07-21T20:18:52.053Z,100359.48
2017-07-21T20:21:18.731Z,100359.67
2017-07-21T20:23:45.419Z,100357.41
2017-07-21T20:26:12.113Z,100355.12
2017-07-21T20:28:38.786Z,100355.19
2017-07-21T20:31:05.473Z,100350.68
2017-07-21T20:33:32.173Z,100347.31
2017-07-21T20:35:58.858Z,100346.83
2017-07-21T20:38:25.532Z,100341.20
2017-07-21T20:40:52.205Z,100333.78
2017-07-21T21:01:46.941Z,100370.73
2017-07-21T21:04:13.658Z,100370.37
2017-07-21T21:06:40.378Z,100356.36
2017-07-21T21:09:07.063Z,100351.58
2017-07-21T21:11:33.783Z,100364.91
2017-07-21T21:14:00.478Z,100361.81
2017-07-21T21:16:27.229Z,100347.44
2017-07-21T21:18:53.913Z,100347.64
2017-07-21T21:21:20.587Z,100347.02
2017-07-21T21:23:47.283Z,100346.30
2017-07-21T21:26:13.966Z,100341.52
2017-07-21T21:28:40.644Z,100337.81
2017-07-21T21:31:07.321Z,100342.19
2017-07-21T21:33:33.994Z,100341.69
2017-07-21T21:36:00.673Z,100340.78
2017-07-21T21:38:27.355Z,100339.95
2017-07-21T21:40:54.048Z,100332.41
2017-07-21T21:43:20.753Z,100338.31
2017-07-21T21:45:47.430Z,100335.48
2017-07-21T21:48:14.088Z,100331.32
2017-07-21T21:50:40.766Z,100331.32
2017-07-21T21:53:07.475Z,100333.98
2017-07-21T21:55:34.184Z,100330.48
2017-07-21T21:58:00.884Z,100328.60
2017-07-21T22:00:27.623Z,100322.05
2017-07-21T22:02:54.317Z,100317.41
2017-07-21T22:05:21.017Z,100312.32
2017-07-21T22:07:47.693Z,100312.50
2017-07-21T22:10:14.377Z,100312.02
2017-07-21T22:12:41.069Z,100318.40
2017-07-21T22:15:07.778Z,100323.91
2017-07-21T22:17:34.462Z,100318.13
2017-07-21T22:20:01.142Z,100322.50
2017-07-21T22:22:27.844Z,100324.56
2017-07-21T22:24:54.521Z,100331.34
2017-07-21T22:27:21.202Z,100330.23
2017-07-21T22:29:47.872Z,100335.97
2017-07-21T22:32:14.535Z,100329.02
2017-07-21T22:34:41.234Z,100322.65
2017-07-21T22:37:07.903Z,100309.96
2017-07-21T22:39:34.579Z,100311.95
2017-07-21T22:42:01.235Z,100308.75
2017-07-21T22:44:27.932Z,100312.91
2017-07-21T22:46:54.599Z,100308.56
2017-07-21T22:49:21.291Z,100313.37
2017-07-21T22:51:47.962Z,100312.69
2017-07-21T22:54:14.623Z,100318.41
2017-07-21T22:56:41.313Z,100314.03
2017-07-21T22:59:08.002Z,100323.73
2017-07-21T23:01:34.664Z,100327.27
2017-07-21T23:04:01.332Z,100327.56
2017-07-21T23:06:28.012Z,100324.02
2017-07-21T23:08:54.687Z,100331.27
2017-07-21T23:11:21.365Z,100331.52
2017-07-21T23:13:48.050Z,100331.22
2017-07-21T23:16:14.707Z,100329.31
2017-07-21T23:18:41.399Z,100335.27
2017-07-21T23:21:08.105Z,100332.48
2017-07-21T23:23:34.787Z,100333.93
2017-07-21T23:26:01.462Z,100339.34
2017-07-21T23:28:28.143Z,100340.75
2017-07-21T23:30:54.822Z,100338.84
2017-07-21T23:33:21.495Z,100337.38
2017-07-21T23:35:48.165Z,100334.38
2017-07-21T23:38:14.850Z,100326.06
2017-07-21T23:40:41.531Z,100326.47
2017-07-21T23:43:08.207Z,100333.59
2017-07-21T23:45:34.871Z,100328.84
2017-07-21T23:48:01.549Z,100323.03
2017-07-21T23:50:28.214Z,100328.64
2017-07-21T23:52:54.950Z,100326.36
2017-07-21T23:55:21.610Z,100319.94
2017-07-21T23:57:48.298Z,100320.91
